Time;durP1;ratioP1;P1;durP2;ratioP2;P2;SDS_P1;SDS_P2;PMS_P1;PMS_P2;Temp;Humidity;BMP_temperature;BMP_pressure;BME280_temperature;BME280_humidity;BME280_pressure;Samples;Min_cycle;Max_cycle;Signal;HPM_P1;HPM_P2
2022/12/13 00:01:40;;;;;;;24.45;12.27;;;;;;;-2.56;95.06;98722.00;8371386;28;20041;-75
2022/12/13 00:05:45;;;;;;;27.95;12.60;;;;;;;-2.60;94.89;98731.44;8383502;28;20041;-73
2022/12/13 00:09:46;;;;;;;23.95;11.73;;;;;;;-2.60;95.24;98726.16;8384285;28;20502;-74
2022/12/13 00:13:47;;;;;;;27.60;11.63;;;;;;;-2.65;95.16;98723.41;8386632;28;20044;-73
2022/12/13 00:17:48;;;;;;;30.85;12.73;;;;;;;-2.60;95.05;98715.56;8369849;28;20045;-74
2022/12/13 00:21:49;;;;;;;25.95;12.32;;;;;;;-2.63;94.83;98731.88;8379431;28;20044;-73
2022/12/13 00:25:50;;;;;;;27.25;12.40;;;;;;;-2.60;94.85;98720.88;8382971;28;20487;-75
2022/12/13 00:29:51;;;;;;;27.27;12.75;;;;;;;-2.61;94.55;98729.81;8350383;28;20103;-72
2022/12/13 00:33:52;;;;;;;23.17;10.23;;;;;;;-2.53;94.28;98724.16;8315540;28;20041;-73
2022/12/13 00:37:53;;;;;;;27.77;13.20;;;;;;;-2.59;94.33;98727.75;8351133;28;20477;-73
2022/12/13 00:41:54;;;;;;;26.92;12.93;;;;;;;-2.58;94.13;98719.56;8348021;28;20396;-73
2022/12/13 00:45:55;;;;;;;23.13;12.13;;;;;;;-2.61;94.85;98732.47;8335073;28;20133;-74
2022/12/13 00:49:56;;;;;;;29.33;13.18;;;;;;;-2.65;94.80;98729.50;8336366;28;20073;-74
2022/12/13 00:53:57;;;;;;;28.83;13.02;;;;;;;-2.62;95.04;98733.50;8346353;28;20072;-73
2022/12/13 00:57:59;;;;;;;29.13;13.38;;;;;;;-2.59;94.50;98743.63;8350119;28;20554;-73
2022/12/13 01:01:59;;;;;;;27.80;13.68;;;;;;;-2.54;94.59;98740.28;8382410;28;20045;-73
2022/12/13 01:06:01;;;;;;;29.35;14.30;;;;;;;-2.55;94.95;98726.25;8389588;28;20040;-73
2022/12/13 01:10:04;;;;;;;26.83;11.85;;;;;;;-2.53;94.14;98740.03;8388219;28;20052;-73
2022/12/13 01:14:05;;;;;;;28.95;13.93;;;;;;;-2.60;94.50;98736.72;8382582;28;20041;-72
2022/12/13 01:18:06;;;;;;;31.38;14.77;;;;;;;-2.70;94.98;98741.78;8378464;28;20128;-74
2022/12/13 01:22:07;;;;;;;25.60;12.70;;;;;;;-2.66;94.66;98737.66;8378950;28;20049;-73
2022/12/13 01:26:11;;;;;;;31.13;13.75;;;;;;;-2.70;95.05;98733.88;8365595;28;20044;-72
2022/12/13 01:30:12;;;;;;;28.73;13.30;;;;;;;-2.68;95.34;98739.72;8385055;28;20514;-73
2022/12/13 01:34:15;;;;;;;28.20;14.32;;;;;;;-2.71;95.63;98740.19;8383390;28;20435;-73
2022/12/13 01:38:17;;;;;;;27.95;13.63;;;;;;;-2.73;95.27;98734.31;8384125;28;20056;-73
2022/12/13 01:42:18;;;;;;;28.98;13.90;;;;;;;-2.75;95.33;98733.75;8344450;28;20053;-73
2022/12/13 01:46:19;;;;;;;30.98;14.75;;;;;;;-2.74;95.44;98724.78;8365027;28;20434;-75
2022/12/13 01:50:24;;;;;;;25.42;13.10;;;;;;;-2.73;95.56;98731.66;8387650;28;20052;-73
2022/12/13 01:54:32;;;;;;;29.10;12.93;;;;;;;-2.77;95.38;98741.09;8379608;28;20045;-72
2022/12/13 01:58:34;;;;;;;23.23;11.75;;;;;;;-2.78;95.14;98734.22;8383376;28;20045;-73
2022/12/13 02:02:35;;;;;;;27.77;12.38;;;;;;;-2.73;94.12;98736.97;8378461;28;20049;-74
2022/12/13 02:06:40;;;;;;;27.98;11.60;;;;;;;-2.76;93.87;98737.44;8377056;28;20043;-73
2022/12/13 02:10:42;;;;;;;24.80;11.18;;;;;;;-2.76;93.96;98748.00;8396768;28;20053;-73
2022/12/13 02:14:43;;;;;;;23.15;11.45;;;;;;;-2.82;93.68;98755.00;8354987;28;20068;-73
2022/12/13 02:19:05;;;;;;;21.50;10.93;;;;;;;-2.83;94.24;98757.88;8370412;28;20482;-73
2022/12/13 02:23:43;;;;;;;27.15;12.15;;;;;;;-2.90;94.15;98757.19;8377843;28;20059;-73
2022/12/13 02:28:06;;;;;;;24.27;10.70;;;;;;;-2.89;93.73;98753.50;8392356;28;20548;-73
2022/12/13 02:32:22;;;;;;;21.75;10.32;;;;;;;-2.86;92.70;98768.91;8380856;28;20396;-74
2022/12/13 02:36:30;;;;;;;21.90;10.32;;;;;;;-2.92;92.29;98759.28;8365389;28;20052;-73
2022/12/13 02:40:37;;;;;;;24.38;10.05;;;;;;;-2.92;92.17;98769.84;8407486;28;20052;-73
2022/12/13 02:44:54;;;;;;;21.80;10.25;;;;;;;-3.05;92.33;98766.38;8392437;28;20056;-73
2022/12/13 02:48:56;;;;;;;20.77;9.77;;;;;;;-3.25;92.17;98775.66;8393557;28;20041;-73
2022/12/13 02:52:57;;;;;;;24.48;10.27;;;;;;;-3.47;92.59;98756.91;8380318;28;20199;-73
2022/12/13 02:56:59;;;;;;;22.98;9.80;;;;;;;-3.54;91.94;98772.03;8370057;28;20399;-74
2022/12/13 03:01:16;;;;;;;18.83;8.65;;;;;;;-3.78;92.48;98771.16;8342589;28;20518;-73
2022/12/13 03:09:54;;;;;;;19.77;9.23;;;;;;;-3.97;93.34;98770.44;8380001;28;20051;-74
2022/12/13 03:13:59;;;;;;;22.33;9.90;;;;;;;-4.03;93.64;98768.69;8370174;28;20392;-74
2022/12/13 03:18:14;;;;;;;22.50;9.93;;;;;;;-4.08;93.77;98771.19;8388401;28;20052;-73
2022/12/13 03:22:16;;;;;;;21.95;9.18;;;;;;;-4.14;93.50;98766.78;8375535;28;20053;-73
2022/12/13 03:26:20;;;;;;;19.20;9.00;;;;;;;-4.29;93.71;98779.56;8393682;28;20044;-73
2022/12/13 03:30:21;;;;;;;22.13;9.65;;;;;;;-4.41;94.30;98762.84;8396608;28;20139;-73
2022/12/13 03:34:22;;;;;;;19.90;9.32;;;;;;;-4.51;94.42;98776.56;8395513;28;20049;-72
2022/12/13 03:38:24;;;;;;;26.35;10.32;;;;;;;-4.57;94.35;98760.81;8382922;28;20419;-73
2022/12/13 03:42:25;;;;;;;19.75;9.27;;;;;;;-4.67;94.32;98771.88;8349516;28;20048;-73
2022/12/13 03:46:26;;;;;;;25.17;11.00;;;;;;;-4.77;94.74;98772.38;8386093;28;20060;-72
2022/12/13 03:50:27;;;;;;;24.80;10.00;;;;;;;-4.80;94.79;98772.78;8389080;28;20692;-74
2022/12/13 03:54:28;;;;;;;22.98;10.02;;;;;;;-4.91;94.84;98770.88;8362539;28;20057;-73
2022/12/13 03:58:29;;;;;;;24.08;10.25;;;;;;;-4.90;94.90;98772.50;8387092;28;20040;-73
2022/12/13 04:02:31;;;;;;;27.33;10.93;;;;;;;-4.86;94.88;98773.66;8393291;28;20041;-73
2022/12/13 04:06:32;;;;;;;21.75;8.70;;;;;;;-4.81;94.60;98765.91;8393179;28;20182;-74
2022/12/13 04:10:34;;;;;;;25.33;9.75;;;;;;;-4.70;94.82;98767.81;8392189;28;20060;-74
2022/12/13 04:14:35;;;;;;;18.45;8.70;;;;;;;-4.52;93.93;98768.84;8389839;28;20058;-73
2022/12/13 04:18:36;;;;;;;22.98;9.32;;;;;;;-4.60;93.91;98766.53;8383357;28;20049;-73
2022/12/13 04:22:37;;;;;;;24.02;9.77;;;;;;;-4.56;94.06;98768.50;8382449;28;20127;-75
2022/12/13 04:26:38;;;;;;;23.38;10.07;;;;;;;-4.50;94.19;98766.81;8384609;28;20098;-74
2022/12/13 04:30:39;;;;;;;24.02;9.25;;;;;;;-4.45;93.90;98769.59;8373865;28;20170;-74
2022/12/13 04:34:40;;;;;;;22.92;9.80;;;;;;;-4.38;94.09;98770.31;8389749;28;20049;-73
2022/12/13 04:38:40;;;;;;;24.48;11.07;;;;;;;-4.34;93.88;98767.03;8391729;28;20057;-73
2022/12/13 04:42:42;;;;;;;23.00;10.07;;;;;;;-4.30;93.88;98772.66;8380206;28;20052;-75
2022/12/13 04:46:42;;;;;;;26.33;10.55;;;;;;;-4.25;93.93;98767.53;8370623;28;20477;-73
2022/12/13 04:50:44;;;;;;;26.40;10.73;;;;;;;-4.25;94.27;98770.16;8374039;28;20064;-74
2022/12/13 04:54:45;;;;;;;25.25;10.65;;;;;;;-4.26;94.05;98765.91;8376364;28;20049;-72
2022/12/13 04:58:46;;;;;;;25.02;10.88;;;;;;;-4.25;94.04;98770.16;8373270;28;20052;-73
2022/12/13 05:02:47;;;;;;;26.02;10.75;;;;;;;-4.28;94.17;98781.13;8379107;28;20416;-73
2022/12/13 05:06:48;;;;;;;23.30;10.88;;;;;;;-4.20;94.11;98772.94;8372750;28;20053;-73
2022/12/13 05:10:49;;;;;;;24.63;10.43;;;;;;;-4.12;93.80;98780.53;8394658;28;20141;-73
2022/12/13 05:14:50;;;;;;;24.70;9.73;;;;;;;-4.09;92.94;98769.56;8394000;28;20056;-73
2022/12/13 05:18:51;;;;;;;21.75;9.55;;;;;;;-4.05;92.38;98770.72;8393086;28;20052;-72
2022/12/13 05:22:55;;;;;;;22.67;10.13;;;;;;;-3.94;91.39;98762.06;8383311;28;20410;-73
2022/12/13 05:26:57;;;;;;;20.63;8.80;;;;;;;-3.96;91.74;98777.28;8377378;28;20049;-73
2022/12/13 05:31:08;;;;;;;25.83;10.48;;;;;;;-4.04;92.22;98777.59;8370029;28;20092;-73
2022/12/13 05:35:09;;;;;;;27.85;10.88;;;;;;;-4.03;92.60;98779.22;8342970;28;20057;-72
2022/12/13 05:39:10;;;;;;;23.83;9.68;;;;;;;-4.02;92.61;98775.53;8377722;28;20041;-73
2022/12/13 05:43:12;;;;;;;25.17;11.07;;;;;;;-4.04;93.35;98782.88;8372571;28;20044;-72
2022/12/13 05:47:13;;;;;;;26.75;10.45;;;;;;;-4.06;93.71;98774.38;8378681;28;20045;-73
2022/12/13 05:51:14;;;;;;;23.75;11.48;;;;;;;-4.12;94.63;98770.00;8376728;28;20055;-73
2022/12/13 05:55:15;;;;;;;25.10;10.80;;;;;;;-4.10;94.76;98773.22;8376946;28;20046;-73
2022/12/13 05:59:16;;;;;;;26.27;10.98;;;;;;;-4.10;94.74;98772.41;8380366;28;20045;-73
2022/12/13 06:03:17;;;;;;;26.83;10.82;;;;;;;-4.06;94.78;98777.03;8349890;28;20496;-73
2022/12/13 06:07:18;;;;;;;15.93;6.75;;;;;;;-4.13;95.27;98784.22;8366712;28;20052;-74
2022/12/13 06:11:19;;;;;;;36.45;12.80;;;;;;;-4.10;95.62;98773.22;8394639;28;20644;-74
2022/12/13 06:15:20;;;;;;;31.60;12.98;;;;;;;-4.17;96.53;98777.75;8390745;28;20494;-73
2022/12/13 06:19:21;;;;;;;27.77;12.65;;;;;;;-4.18;96.85;98786.72;8351768;28;20045;-73
2022/12/13 06:23:23;;;;;;;31.27;12.10;;;;;;;-4.16;97.17;98774.09;8385101;28;20051;-73
2022/12/13 06:27:24;;;;;;;26.45;11.73;;;;;;;-4.11;97.24;98782.16;8345367;28;20080;-73
2022/12/13 06:31:25;;;;;;;25.58;11.32;;;;;;;-4.11;96.87;98782.16;8375533;28;20051;-73
2022/12/13 06:35:26;;;;;;;30.67;12.45;;;;;;;-4.12;96.92;98791.09;8384762;28;20151;-74
2022/12/13 06:39:28;;;;;;;31.48;12.48;;;;;;;-4.15;97.06;98786.28;8389522;28;20467;-73
2022/12/13 06:43:29;;;;;;;37.88;14.07;;;;;;;-4.15;97.75;98790.72;8387043;28;20133;-73
2022/12/13 06:47:30;;;;;;;36.67;13.88;;;;;;;-4.12;97.36;98795.56;8381109;28;20491;-72
2022/12/13 06:51:33;;;;;;;35.17;14.57;;;;;;;-4.08;97.84;98796.75;8379597;28;20072;-73
2022/12/13 06:55:35;;;;;;;40.95;15.75;;;;;;;-4.09;98.17;98805.69;8355611;28;20051;-73
2022/12/13 06:59:36;;;;;;;36.55;15.93;;;;;;;-4.10;98.39;98794.31;8371995;28;20045;-73
2022/12/13 07:03:37;;;;;;;36.83;13.73;;;;;;;-4.11;98.73;98808.53;8369935;28;20044;-73
2022/12/13 07:07:38;;;;;;;29.40;12.73;;;;;;;-4.11;98.34;98813.81;8397065;28;20400;-73
2022/12/13 07:11:39;;;;;;;36.03;14.43;;;;;;;-4.15;98.61;98812.63;8377289;28;20045;-72
2022/12/13 07:15:40;;;;;;;41.80;16.10;;;;;;;-4.11;98.53;98813.00;8374889;28;20060;-72
2022/12/13 07:19:41;;;;;;;34.92;13.85;;;;;;;-4.07;97.56;98809.69;8378622;28;20406;-72
2022/12/13 07:23:42;;;;;;;32.70;13.80;;;;;;;-4.05;96.89;98807.66;8377928;28;20052;-74
2022/12/13 07:27:43;;;;;;;29.77;12.68;;;;;;;-4.03;96.56;98816.16;8371715;28;20057;-73
2022/12/13 07:31:44;;;;;;;33.63;12.95;;;;;;;-4.01;95.84;98818.53;8388484;28;20049;-72
2022/12/13 07:35:45;;;;;;;28.70;12.43;;;;;;;-3.96;95.79;98816.84;8391132;28;20051;-72
2022/12/13 07:39:46;;;;;;;28.88;12.27;;;;;;;-4.01;95.39;98835.19;8386134;28;20135;-73
2022/12/13 07:43:48;;;;;;;29.13;12.40;;;;;;;-4.03;95.43;98826.69;8395825;28;20071;-74
2022/12/13 07:47:49;;;;;;;31.83;11.68;;;;;;;-3.99;95.61;98833.13;8392711;28;20045;-73
2022/12/13 07:51:50;;;;;;;32.17;11.85;;;;;;;-3.96;94.92;98835.31;8386964;28;20066;-73
2022/12/13 07:55:51;;;;;;;33.17;12.50;;;;;;;-3.88;94.56;98829.75;8380335;28;20045;-73
2022/12/13 07:59:52;;;;;;;32.80;13.48;;;;;;;-3.83;94.47;98832.53;8386076;28;20048;-72
2022/12/13 08:03:53;;;;;;;24.48;12.23;;;;;;;-3.76;94.30;98826.38;8373987;28;20040;-72
2022/12/13 08:07:54;;;;;;;31.98;12.63;;;;;;;-3.70;94.67;98836.03;8358156;28;20059;-72
2022/12/13 08:11:55;;;;;;;29.77;12.18;;;;;;;-3.66;94.88;98837.19;8367887;28;20403;-73
2022/12/13 08:16:05;;;;;;;26.15;12.40;;;;;;;-3.56;94.61;98842.75;8351545;28;20055;-72
2022/12/13 08:20:06;;;;;;;27.92;12.60;;;;;;;-3.45;94.22;98844.63;8345131;28;20055;-73
2022/12/13 08:24:07;;;;;;;26.27;11.57;;;;;;;-3.38;93.92;98840.03;8336534;28;20076;-73
2022/12/13 08:28:08;;;;;;;28.25;11.65;;;;;;;-3.31;94.60;98843.38;8371383;28;20072;-72
2022/12/13 08:32:11;;;;;;;32.28;13.93;;;;;;;-3.27;94.25;98841.91;8363710;28;20040;-73
2022/12/13 08:36:16;;;;;;;34.72;14.80;;;;;;;-3.32;94.49;98844.41;8371702;28;20098;-73
2022/12/13 08:40:17;;;;;;;34.20;14.70;;;;;;;-3.33;94.84;98858.63;8368705;28;20049;-72
2022/12/13 08:44:18;;;;;;;36.47;14.32;;;;;;;-3.47;95.37;98857.22;8391273;28;20132;-72
2022/12/13 08:48:19;;;;;;;38.67;16.52;;;;;;;-3.45;96.15;98849.91;8380598;28;20055;-72
2022/12/13 08:52:21;;;;;;;40.38;15.60;;;;;;;-3.22;96.33;98849.16;8393142;28;20044;-73
2022/12/13 08:56:22;;;;;;;37.28;15.90;;;;;;;-3.03;95.87;98856.78;8373964;28;20052;-73
2022/12/13 09:00:24;;;;;;;36.95;15.52;;;;;;;-2.89;95.31;98848.63;8370693;28;20040;-73
2022/12/13 09:04:25;;;;;;;37.78;16.10;;;;;;;-2.91;94.99;98862.09;8371521;28;20049;-73
2022/12/13 09:08:26;;;;;;;37.33;15.55;;;;;;;-3.07;95.56;98858.25;8363067;28;20041;-72
2022/12/13 09:12:27;;;;;;;31.10;13.75;;;;;;;-3.12;95.14;98860.75;8366578;28;20080;-73
2022/12/13 09:16:29;;;;;;;32.05;14.73;;;;;;;-3.11;93.83;98856.28;8365916;28;20553;-73
2022/12/13 09:20:30;;;;;;;30.80;12.18;;;;;;;-2.90;93.06;98862.88;8370754;28;20084;-74
2022/12/13 09:24:31;;;;;;;32.42;13.75;;;;;;;-2.64;91.91;98862.44;8368640;28;20044;-73
2022/12/13 09:28:33;;;;;;;29.63;11.68;;;;;;;-2.46;90.46;98865.00;8366509;28;20520;-72
2022/12/13 09:32:35;;;;;;;23.67;9.15;;;;;;;-2.50;89.84;98858.56;8375886;28;20056;-74
2022/12/13 09:36:36;;;;;;;28.65;11.52;;;;;;;-2.31;89.47;98862.69;8373408;28;20522;-73
2022/12/13 09:40:38;;;;;;;36.13;14.35;;;;;;;-2.34;88.89;98857.88;8368162;28;20060;-72
2022/12/13 09:44:51;;;;;;;31.35;11.73;;;;;;;-2.46;88.54;98875.56;8368220;28;20053;-72
2022/12/13 09:48:53;;;;;;;28.50;12.55;;;;;;;-2.55;89.10;98866.38;8371228;28;20056;-73
2022/12/13 09:52:55;;;;;;;34.88;13.30;;;;;;;-2.52;89.19;98868.53;8364405;28;20052;-72
2022/12/13 09:56:56;;;;;;;32.45;12.90;;;;;;;-2.53;89.07;98859.00;8344659;28;20132;-72
2022/12/13 10:00:58;;;;;;;24.40;10.05;;;;;;;-2.58;88.67;98866.81;8370078;28;20077;-73
2022/12/13 10:05:13;;;;;;;27.95;9.82;;;;;;;-2.56;88.34;98854.19;8368057;28;20418;-72
2022/12/13 10:09:14;;;;;;;27.02;12.05;;;;;;;-2.46;88.30;98854.41;8368554;28;20098;-73
2022/12/13 10:13:43;;;;;;;29.27;11.45;;;;;;;-2.47;87.71;98863.38;8293269;28;20107;-72
2022/12/13 10:17:47;;;;;;;28.60;13.00;;;;;;;-2.34;88.02;98857.88;8283985;28;20045;-73
2022/12/13 10:21:48;;;;;;;24.27;7.97;;;;;;;-2.23;87.80;98864.97;8323951;28;20049;-73
2022/12/13 10:25:55;;;;;;;27.75;10.23;;;;;;;-2.21;86.76;98847.03;8327806;28;20132;-72
2022/12/13 10:29:59;;;;;;;32.47;14.18;;;;;;;-2.31;87.04;98857.38;8328014;28;20049;-73
2022/12/13 10:34:00;;;;;;;22.67;9.20;;;;;;;-2.26;87.06;98854.84;8327357;28;20049;-73
2022/12/13 10:38:21;;;;;;;31.58;12.25;;;;;;;-2.38;87.43;98856.69;8314358;28;20081;-72
2022/12/13 10:42:23;;;;;;;28.75;12.32;;;;;;;-2.33;88.06;98854.19;8321240;28;20102;-72
2022/12/13 10:46:24;;;;;;;30.38;12.65;;;;;;;-2.47;88.12;98841.41;8390153;28;20044;-72
2022/12/13 10:50:28;;;;;;;27.98;12.73;;;;;;;-2.50;88.61;98847.97;8392540;28;20567;-73
2022/12/13 10:54:32;;;;;;;23.88;10.73;;;;;;;-2.30;88.80;98853.72;8397070;28;20177;-73
2022/12/13 10:58:42;;;;;;;26.90;11.32;;;;;;;-2.09;88.20;98844.38;8395548;28;20486;-72
2022/12/13 11:02:53;;;;;;;24.70;10.95;;;;;;;-2.07;86.93;98847.59;8373182;28;20071;-73
2022/12/13 11:06:56;;;;;;;24.90;12.15;;;;;;;-2.04;86.46;98841.00;8375320;28;20071;-72
2022/12/13 11:11:02;;;;;;;26.65;11.48;;;;;;;-2.17;86.49;98847.38;8378279;28;20048;-73
2022/12/13 11:15:05;;;;;;;27.25;11.43;;;;;;;-2.42;86.27;98850.25;8379910;28;20049;-73
2022/12/13 11:19:16;;;;;;;26.85;10.88;;;;;;;-2.47;86.13;98847.50;8372185;28;20048;-72
2022/12/13 11:23:27;;;;;;;26.63;11.13;;;;;;;-2.35;86.37;98850.97;8374645;28;20437;-73
2022/12/13 11:27:46;;;;;;;26.05;11.25;;;;;;;-2.23;86.11;98838.53;8370684;28;20419;-73
2022/12/13 11:32:08;;;;;;;26.80;12.25;;;;;;;-2.11;85.75;98832.41;8375522;28;20056;-73
2022/12/13 11:36:20;;;;;;;25.50;12.00;;;;;;;-1.79;85.29;98833.56;8258818;28;20050;-73
2022/12/13 11:40:27;;;;;;;26.30;10.45;;;;;;;-1.85;84.54;98834.53;8258995;28;20050;-73
2022/12/13 11:44:53;;;;;;;22.33;10.63;;;;;;;-2.07;84.41;98830.91;8239809;28;20074;-73
2022/12/13 11:48:58;;;;;;;28.08;11.30;;;;;;;-2.02;85.17;98836.31;8256105;28;20137;-72
2022/12/13 11:53:34;;;;;;;26.23;10.93;;;;;;;-1.97;85.25;98836.41;8242406;28;20097;-73
2022/12/13 11:57:43;;;;;;;26.63;12.07;;;;;;;-1.70;85.39;98842.78;8255985;28;20058;-72
2022/12/13 12:01:52;;;;;;;28.17;11.20;;;;;;;-1.64;84.89;98846.31;8254393;28;20121;-72
2022/12/13 12:05:58;;;;;;;24.10;10.13;;;;;;;-1.51;84.57;98841.53;8239579;28;20050;-73
2022/12/13 12:10:17;;;;;;;28.67;12.18;;;;;;;-1.29;83.81;98850.41;8257726;28;20703;-72
2022/12/13 12:14:34;;;;;;;26.30;12.55;;;;;;;-1.33;83.08;98851.94;8369900;28;20045;-73
2022/12/13 12:18:35;;;;;;;24.48;11.27;;;;;;;-1.56;82.93;98854.69;8377347;28;20056;-72
2022/12/13 12:23:01;;;;;;;23.88;10.70;;;;;;;-1.63;83.62;98848.72;8370619;28;20045;-73
2022/12/13 12:27:24;;;;;;;20.38;9.07;;;;;;;-1.88;82.02;98853.50;8370031;28;20522;-73
2022/12/13 12:31:44;;;;;;;19.83;8.63;;;;;;;-1.96;81.47;98859.19;8377859;28;20056;-73
2022/12/13 12:35:57;;;;;;;17.85;8.20;;;;;;;-2.11;81.17;98861.53;8374127;28;20044;-72
2022/12/13 12:40:07;;;;;;;16.65;7.65;;;;;;;-2.22;80.03;98856.00;8308741;28;20061;-72
2022/12/13 12:44:23;;;;;;;19.98;8.55;;;;;;;-2.15;79.76;98861.97;8312568;28;20073;-73
2022/12/13 12:48:35;;;;;;;17.63;7.32;;;;;;;-2.28;79.82;98867.53;8279949;28;20583;-72
2022/12/13 12:52:55;;;;;;;21.08;8.88;;;;;;;-2.25;79.34;98877.63;8306189;28;20348;-73
2022/12/13 12:57:16;;;;;;;28.30;9.15;;;;;;;-2.21;79.45;98870.81;8302464;28;20050;-73
2022/12/13 13:01:27;;;;;;;22.52;8.52;;;;;;;-2.19;80.07;98866.13;8302318;28;20507;-73
2022/12/13 13:05:46;;;;;;;16.70;7.82;;;;;;;-2.26;80.04;98870.72;8301934;28;20451;-73
2022/12/13 13:09:48;;;;;;;17.42;7.38;;;;;;;-2.28;80.10;98867.53;8299090;28;20048;-73
2022/12/13 13:14:00;;;;;;;15.77;7.05;;;;;;;-2.25;80.08;98867.03;8311402;28;20042;-73
2022/12/13 13:18:02;;;;;;;19.30;7.70;;;;;;;-2.26;80.30;98860.13;8279124;28;20096;-72
2022/12/13 13:22:05;;;;;;;20.15;9.10;;;;;;;-2.29;80.02;98865.91;8300736;28;20409;-73
2022/12/13 13:26:06;;;;;;;25.50;9.95;;;;;;;-2.31;80.11;98873.25;8298405;28;20049;-73
2022/12/13 13:30:18;;;;;;;23.17;9.38;;;;;;;-2.44;80.29;98873.50;8301065;28;20160;-72
2022/12/13 13:34:24;;;;;;;18.80;8.50;;;;;;;-2.32;80.29;98866.34;8317958;28;20054;-72
2022/12/13 13:38:29;;;;;;;18.73;8.30;;;;;;;-2.27;79.94;98874.41;8341418;28;20732;-72
2022/12/13 13:42:31;;;;;;;23.08;10.25;;;;;;;-2.32;80.70;98866.34;8369958;28;20090;-73
2022/12/13 13:47:12;;;;;;;27.88;10.75;;;;;;;-2.36;80.89;98886.38;8364912;28;20051;-73
2022/12/13 13:51:45;;;;;;;22.63;9.98;;;;;;;-2.43;81.34;98885.66;8370438;28;20512;-72
2022/12/13 13:56:11;;;;;;;22.95;9.70;;;;;;;-2.56;81.70;98888.56;8366327;28;20124;-73
2022/12/13 14:00:38;;;;;;;24.13;10.85;;;;;;;-2.63;82.02;98901.06;8376629;28;20538;-73
2022/12/13 14:05:10;;;;;;;23.77;10.55;;;;;;;-2.69;82.16;98901.97;8373622;28;20051;-74
2022/12/13 14:09:38;;;;;;;27.40;11.30;;;;;;;-2.71;81.82;98898.78;8370847;28;20361;-73
2022/12/13 14:13:46;;;;;;;;;;;;;;;-2.79;82.25;98905.19;8370528;28;20416;-74
2022/12/13 14:18:06;;;;;;;25.17;10.88;;;;;;;-2.94;83.09;98898.72;8379107;28;19920;-74
2022/12/13 14:22:16;;;;;;;23.98;10.68;;;;;;;-3.11;83.86;98904.66;8382384;28;20049;-73
2022/12/13 14:26:23;;;;;;;28.10;12.05;;;;;;;-3.23;83.81;98906.47;8355273;28;20041;-74
2022/12/13 14:30:25;;;;;;;;;;;;;;;-3.39;84.22;98907.09;8375186;28;20059;-74
2022/12/13 14:34:28;;;;;;;25.45;10.18;;;;;;;-3.50;84.86;98905.19;8394497;28;20346;-73
2022/12/13 14:38:30;;;;;;;24.67;10.80;;;;;;;-3.61;85.05;98898.03;8381323;28;20128;-74
2022/12/13 14:42:33;;;;;;;25.33;11.05;;;;;;;-3.74;85.06;98914.00;8358022;28;20049;-73
2022/12/13 14:46:34;;;;;;;25.58;11.00;;;;;;;-3.89;85.76;98912.56;8371637;28;20056;-74
2022/12/13 14:50:37;;;;;;;26.77;10.50;;;;;;;-4.00;86.34;98915.94;8384191;28;20143;-74
2022/12/13 14:54:46;;;;;;;24.52;10.68;;;;;;;-4.05;86.18;98918.41;8375606;28;20075;-74
2022/12/13 14:58:57;;;;;;;27.67;11.23;;;;;;;-3.99;86.01;98922.81;8388169;28;20646;-75
2022/12/13 15:03:00;;;;;;;22.55;9.77;;;;;;;-3.86;85.98;98922.66;8377827;28;20538;-74
2022/12/13 15:07:11;;;;;;;26.70;10.52;;;;;;;-3.74;86.07;98916.66;8383121;28;20040;-75
2022/12/13 15:11:12;;;;;;;28.73;12.35;;;;;;;-3.65;85.84;98920.63;8388553;28;20048;-74
2022/12/13 15:15:22;;;;;;;31.58;12.80;;;;;;;-3.67;85.96;98914.75;8368650;28;20053;-74
2022/12/13 15:19:26;;;;;;;33.17;13.38;;;;;;;-3.63;86.33;98910.63;8382992;28;20041;-75
2022/12/13 15:23:37;;;;;;;31.92;12.80;;;;;;;-3.69;86.75;98911.50;8394143;28;20640;-75
2022/12/13 15:27:41;;;;;;;39.28;14.38;;;;;;;-3.81;87.25;98923.84;8382465;28;20049;-75
2022/12/13 15:31:43;;;;;;;36.95;15.30;;;;;;;-3.92;87.65;98923.56;8345349;28;20056;-75
2022/12/13 15:36:00;;;;;;;36.42;14.25;;;;;;;-4.01;87.82;98930.13;8373443;28;20063;-74
2022/12/13 15:40:06;;;;;;;41.58;15.93;;;;;;;-4.13;88.27;98926.63;8380560;28;20490;-76
2022/12/13 15:44:14;;;;;;;41.00;17.35;;;;;;;-4.23;88.63;98931.59;8381496;28;20090;-74
2022/12/13 15:48:28;;;;;;;43.50;16.25;;;;;;;-4.26;88.95;98932.03;8390548;28;20056;-73
2022/12/13 15:52:38;;;;;;;40.80;17.00;;;;;;;-4.29;89.08;98940.38;8324940;28;20140;-74
2022/12/13 15:57:01;;;;;;;44.72;18.40;;;;;;;-4.34;89.44;98940.22;8325381;28;20132;-73
2022/12/13 16:01:04;;;;;;;43.97;17.00;;;;;;;-4.31;89.17;98934.50;8324707;28;20065;-73
2022/12/13 16:05:07;;;;;;;54.55;21.77;;;;;;;-4.34;89.71;98941.03;8324095;28;20128;-73
2022/12/13 16:09:17;;;;;;;54.55;20.05;;;;;;;-4.37;89.85;98930.09;8325904;28;20049;-74
2022/12/13 16:13:25;;;;;;;65.65;24.40;;;;;;;-4.43;90.37;98930.94;8324722;28;20820;-73
2022/12/13 16:17:28;;;;;;;67.30;23.77;;;;;;;-4.56;91.13;98931.09;8308176;28;20582;-74
2022/12/13 16:21:32;;;;;;;51.60;18.70;;;;;;;-4.66;91.56;98936.03;8305152;28;20131;-74
2022/12/13 16:25:34;;;;;;;46.33;18.30;;;;;;;-4.64;91.51;98933.97;8307892;28;20047;-74
2022/12/13 16:29:36;;;;;;;46.20;19.73;;;;;;;-4.65;91.77;98932.38;8366189;28;20048;-74
2022/12/13 16:33:38;;;;;;;60.10;21.70;;;;;;;-4.54;91.75;98942.19;8389177;28;20179;-74
2022/12/13 16:37:39;;;;;;;60.47;20.88;;;;;;;-4.49;91.67;98940.53;8389955;28;20422;-73
2022/12/13 16:41:43;;;;;;;56.05;21.42;;;;;;;-4.46;91.90;98952.47;8368748;28;20045;-74
2022/12/13 16:45:49;;;;;;;62.15;22.95;;;;;;;-4.40;91.61;98954.25;8354506;28;20048;-73
2022/12/13 16:49:51;;;;;;;59.88;21.75;;;;;;;-4.32;92.02;98953.97;8384724;28;20044;-74
2022/12/13 16:53:53;;;;;;;56.17;19.80;;;;;;;-4.27;91.83;98951.50;8351786;28;20045;-74
2022/12/13 16:57:59;;;;;;;45.65;18.50;;;;;;;-4.29;92.22;98948.28;8345394;28;20048;-74
2022/12/13 17:02:00;;;;;;;49.92;18.70;;;;;;;-4.30;92.55;98946.66;8352613;28;20056;-74
2022/12/13 17:06:01;;;;;;;46.35;19.13;;;;;;;-4.36;92.72;98936.97;8332550;28;20072;-73
2022/12/13 17:10:03;;;;;;;51.10;19.13;;;;;;;-4.43;92.73;98946.78;8346151;28;20118;-74
2022/12/13 17:14:05;;;;;;;50.78;20.48;;;;;;;-4.44;92.91;98945.97;8343152;28;20053;-73
2022/12/13 17:18:06;;;;;;;54.75;21.08;;;;;;;-4.36;92.93;98947.53;8329359;28;20525;-74
2022/12/13 17:22:07;;;;;;;49.45;19.65;;;;;;;-4.29;92.35;98948.28;8352377;28;20502;-73
2022/12/13 17:26:10;;;;;;;53.78;21.08;;;;;;;-4.27;92.87;98946.22;8355479;28;20045;-73
2022/12/13 17:30:14;;;;;;;49.70;19.38;;;;;;;-4.24;92.76;98943.16;8388481;28;20053;-73
2022/12/13 17:34:15;;;;;;;50.13;20.77;;;;;;;-4.35;92.90;98946.50;8402195;28;20060;-74
2022/12/13 17:38:17;;;;;;;47.65;20.23;;;;;;;-4.51;93.27;98945.22;8396810;28;20139;-74
2022/12/13 17:42:18;;;;;;;48.05;19.25;;;;;;;-4.65;93.20;98948.97;8393481;28;20045;-74
2022/12/13 17:46:19;;;;;;;45.55;18.95;;;;;;;-4.75;93.64;98949.44;8370374;28;20048;-74
2022/12/13 17:50:20;;;;;;;50.90;19.65;;;;;;;-4.78;93.88;98949.88;8400974;28;20076;-74
2022/12/13 17:54:23;;;;;;;47.58;20.08;;;;;;;-4.78;93.81;98949.88;8391105;28;20071;-74
2022/12/13 17:58:28;;;;;;;45.90;18.73;;;;;;;-4.77;93.50;98954.16;8391921;28;20458;-74
2022/12/13 18:02:35;;;;;;;47.13;20.27;;;;;;;-4.83;93.51;98951.56;8358852;28;20045;-75
2022/12/13 18:06:37;;;;;;;45.80;18.88;;;;;;;-4.94;93.78;98950.41;8399675;28;20052;-74
2022/12/13 18:10:40;;;;;;;46.53;18.77;;;;;;;-4.90;93.49;98956.84;8389461;28;20391;-73
2022/12/13 18:14:45;;;;;;;46.47;17.73;;;;;;;-4.92;93.47;98953.66;8388606;28;20498;-73
2022/12/13 18:18:53;;;;;;;44.05;17.40;;;;;;;-4.87;93.57;98959.09;8331028;28;20052;-75
2022/12/13 18:22:55;;;;;;;39.78;15.88;;;;;;;-4.86;93.19;98963.31;8388615;28;20048;-73
2022/12/13 18:26:56;;;;;;;37.60;15.77;;;;;;;-4.85;93.36;98970.19;8402046;28;20041;-74
2022/12/13 18:31:02;;;;;;;38.03;15.18;;;;;;;-4.94;93.41;98971.47;8400311;28;20418;-73
2022/12/13 18:35:03;;;;;;;37.95;15.63;;;;;;;-5.04;93.71;98976.41;8401037;28;20128;-74
2022/12/13 18:39:04;;;;;;;40.42;15.70;;;;;;;-5.16;93.69;98978.88;8396391;28;20080;-73
2022/12/13 18:43:07;;;;;;;38.03;14.52;;;;;;;-5.17;93.99;98979.09;8392622;28;20464;-74
2022/12/13 18:47:08;;;;;;;40.42;15.48;;;;;;;-5.17;94.02;98965.94;8397653;28;20049;-74
2022/12/13 18:51:10;;;;;;;36.80;15.27;;;;;;;-5.19;93.70;98957.44;8398061;28;20056;-74
2022/12/13 18:55:12;;;;;;;52.03;19.10;;;;;;;-5.25;93.58;98963.56;8390170;28;20044;-74